Terminal Aerodrome Forecast
Issued by NWS Wilmington, OH

Current Version | Previous Version | Graphics & Text | Print | Product List | Glossary On
Versions: 1 2 3 4 5 6 7 8 9 10 11 12 13 14 15 16 17
000
FTUS41 KILN 292300
TAFCMH
TAF
KCMH 292332Z 3000/3024 24003KT P6SM SCT050 BKN110
     FM300300 22003KT P6SM FEW040
     FM301500 26009KT P6SM BKN040
     FM302100 25009KT P6SM SCT045=

USA.gov is the U.S. government's official web portal to all federal, state and local government web resources and services.